<?xml version="1.0" encoding="utf-8"?>
<gpx xmlns:xsi="http://www.w3.org/2001/XMLSchema-instance" xmlns:xsd="http://www.w3.org/2001/XMLSchema" version="1.1" creator="Shapelink.com" xmlns="http://www.topografix.com/GPX/1/1" xmlns:gpxtpx="http://www.garmin.com/xmlschemas/TrackPointExtension/v1">
  <metadata>
    <name>Övrigt 2.57 km, 2019-01-24</name>
    <desc></desc>
    <author><name>Marian Moron</name></author> 
    <time>2019-01-24T20:57:12Z</time>
  </metadata>
  <trk>
    <name>Övrigt 2.57 km, 2019-01-24</name>
    <trkseg>
      <trkpt lat="51.229879517319" lon="4.458159188489">
        <ele>6.2</ele>
        <time>2019-01-24T20:57:12Z</time>
      </trkpt>
      <trkpt lat="51.229951434021" lon="4.45802080332">
        <ele>13.6</ele>
        <time>2019-01-24T20:57:33Z</time>
      </trkpt>
      <trkpt lat="51.229896364938" lon="4.457300462834">
        <ele>13.2</ele>
        <time>2019-01-24T20:58:09Z</time>
      </trkpt>
      <trkpt lat="51.229684470506" lon="4.45664449534">
        <ele>22.4</ele>
        <time>2019-01-24T20:58:32Z</time>
      </trkpt>
      <trkpt lat="51.229736354467" lon="4.456516922822">
        <ele>20</ele>
        <time>2019-01-24T20:58:54Z</time>
      </trkpt>
      <trkpt lat="51.229836015258" lon="4.456527484016">
        <ele>20</ele>
        <time>2019-01-24T20:59:00Z</time>
      </trkpt>
      <trkpt lat="51.229911787634" lon="4.456487250896">
        <ele>21.2</ele>
        <time>2019-01-24T20:59:11Z</time>
      </trkpt>
      <trkpt lat="51.230127956835" lon="4.456548438766">
        <ele>26</ele>
        <time>2019-01-24T20:59:25Z</time>
      </trkpt>
      <trkpt lat="51.230279501587" lon="4.456535446821">
        <ele>26.8</ele>
        <time>2019-01-24T20:59:41Z</time>
      </trkpt>
      <trkpt lat="51.230436410755" lon="4.456469900363">
        <ele>26.6</ele>
        <time>2019-01-24T20:59:52Z</time>
      </trkpt>
      <trkpt lat="51.230605976592" lon="4.456427655587">
        <ele>26.2</ele>
        <time>2019-01-24T21:00:03Z</time>
      </trkpt>
      <trkpt lat="51.230735644585" lon="4.456387087191">
        <ele>27.6</ele>
        <time>2019-01-24T21:00:14Z</time>
      </trkpt>
      <trkpt lat="51.230870425537" lon="4.456391194322">
        <ele>30.6</ele>
        <time>2019-01-24T21:00:33Z</time>
      </trkpt>
      <trkpt lat="51.231047702722" lon="4.456282900174">
        <ele>31.6</ele>
        <time>2019-01-24T21:00:50Z</time>
      </trkpt>
      <trkpt lat="51.231095060457" lon="4.45623462043">
        <ele>32.2</ele>
        <time>2019-01-24T21:01:02Z</time>
      </trkpt>
      <trkpt lat="51.231156164508" lon="4.456345512967">
        <ele>32.2</ele>
        <time>2019-01-24T21:01:12Z</time>
      </trkpt>
      <trkpt lat="51.231114422646" lon="4.457071720783">
        <ele>30.2</ele>
        <time>2019-01-24T21:01:37Z</time>
      </trkpt>
      <trkpt lat="51.231145854771" lon="4.457777644401">
        <ele>25.8</ele>
        <time>2019-01-24T21:01:54Z</time>
      </trkpt>
      <trkpt lat="51.23129848917" lon="4.458453812274">
        <ele>14.6</ele>
        <time>2019-01-24T21:02:16Z</time>
      </trkpt>
      <trkpt lat="51.231310307649" lon="4.458457081215">
        <ele>14</ele>
        <time>2019-01-24T21:02:18Z</time>
      </trkpt>
      <trkpt lat="51.231536451311" lon="4.458364293582">
        <ele>6.6</ele>
        <time>2019-01-24T21:02:42Z</time>
      </trkpt>
      <trkpt lat="51.231651031884" lon="4.45882798029">
        <ele>3.6</ele>
        <time>2019-01-24T21:03:32Z</time>
      </trkpt>
      <trkpt lat="51.231708699356" lon="4.458991259702">
        <ele>0.8</ele>
        <time>2019-01-24T21:03:56Z</time>
      </trkpt>
      <trkpt lat="51.231857729538" lon="4.459403397725">
        <ele>2.2</ele>
        <time>2019-01-24T21:04:55Z</time>
      </trkpt>
      <trkpt lat="51.232032492153" lon="4.459230479128">
        <ele>15.6</ele>
        <time>2019-01-24T21:05:20Z</time>
      </trkpt>
      <trkpt lat="51.232382939392" lon="4.45935017266">
        <ele>13.8</ele>
        <time>2019-01-24T21:05:58Z</time>
      </trkpt>
      <trkpt lat="51.2327125157" lon="4.459298707794">
        <ele>9</ele>
        <time>2019-01-24T21:06:35Z</time>
      </trkpt>
      <trkpt lat="51.232833885612" lon="4.459571622458">
        <ele>8</ele>
        <time>2019-01-24T21:06:57Z</time>
      </trkpt>
      <trkpt lat="51.232905047943" lon="4.460149135368">
        <ele>5.8</ele>
        <time>2019-01-24T21:07:28Z</time>
      </trkpt>
      <trkpt lat="51.233165473576" lon="4.46074492082">
        <ele>22.4</ele>
        <time>2019-01-24T21:08:01Z</time>
      </trkpt>
      <trkpt lat="51.233220710297" lon="4.461157645576">
        <ele>23.8</ele>
        <time>2019-01-24T21:08:25Z</time>
      </trkpt>
      <trkpt lat="51.233288268411" lon="4.46187396275">
        <ele>15.4</ele>
        <time>2019-01-24T21:08:58Z</time>
      </trkpt>
      <trkpt lat="51.233303020555" lon="4.462590531381">
        <ele>2.8</ele>
        <time>2019-01-24T21:09:33Z</time>
      </trkpt>
      <trkpt lat="51.233315090491" lon="4.462668650689">
        <ele>0.4</ele>
        <time>2019-01-24T21:09:40Z</time>
      </trkpt>
      <trkpt lat="51.233382900062" lon="4.462759007571">
        <ele>5.4</ele>
        <time>2019-01-24T21:10:02Z</time>
      </trkpt>
      <trkpt lat="51.233413074902" lon="4.463227891057">
        <ele>5.2</ele>
        <time>2019-01-24T21:10:28Z</time>
      </trkpt>
      <trkpt lat="51.233509131476" lon="4.463918894893">
        <ele>6.4</ele>
        <time>2019-01-24T21:10:58Z</time>
      </trkpt>
      <trkpt lat="51.233500665757" lon="4.463964492429">
        <ele>6</ele>
        <time>2019-01-24T21:11:00Z</time>
      </trkpt>
      <trkpt lat="51.23321375332" lon="4.464520547675">
        <ele>2.6</ele>
        <time>2019-01-24T21:11:37Z</time>
      </trkpt>
      <trkpt lat="51.233172598191" lon="4.464540077502">
        <ele>1.8</ele>
        <time>2019-01-24T21:11:42Z</time>
      </trkpt>
      <trkpt lat="51.232978138111" lon="4.464948862765">
        <ele>0.2</ele>
        <time>2019-01-24T21:12:11Z</time>
      </trkpt>
      <trkpt lat="51.232717712478" lon="4.465523609648">
        <ele>4</ele>
        <time>2019-01-24T21:12:46Z</time>
      </trkpt>
      <trkpt lat="51.232628612881" lon="4.465715219882">
        <ele>0.8</ele>
        <time>2019-01-24T21:13:13Z</time>
      </trkpt>
      <trkpt lat="51.232356871683" lon="4.466311508248">
        <ele>2.4</ele>
        <time>2019-01-24T21:13:51Z</time>
      </trkpt>
      <trkpt lat="51.232280177298" lon="4.466434805997">
        <ele>2.2</ele>
        <time>2019-01-24T21:14:00Z</time>
      </trkpt>
      <trkpt lat="51.232064678649" lon="4.46705481514">
        <ele>7.2</ele>
        <time>2019-01-24T21:14:37Z</time>
      </trkpt>
      <trkpt lat="51.231998210182" lon="4.467060263375">
        <ele>8.2</ele>
        <time>2019-01-24T21:14:48Z</time>
      </trkpt>
      <trkpt lat="51.231624712718" lon="4.467167216419">
        <ele>5.4</ele>
        <time>2019-01-24T21:15:13Z</time>
      </trkpt>
      <trkpt lat="51.231330172752" lon="4.467124636367">
        <ele>1.4</ele>
        <time>2019-01-24T21:15:35Z</time>
      </trkpt>
      <trkpt lat="51.23129010727" lon="4.467141316348">
        <ele>1.4</ele>
        <time>2019-01-24T21:15:39Z</time>
      </trkpt>
      <trkpt lat="51.231181561665" lon="4.467170820636">
        <ele>0.8</ele>
        <time>2019-01-24T21:15:51Z</time>
      </trkpt>
      <trkpt lat="51.231086762376" lon="4.467193451766">
        <ele>0</ele>
        <time>2019-01-24T21:15:57Z</time>
      </trkpt>
      <trkpt lat="51.230903114947" lon="4.467278695689">
        <ele>0</ele>
        <time>2019-01-24T21:16:16Z</time>
      </trkpt>
      <trkpt lat="51.230774536601" lon="4.467315743687">
        <ele>0</ele>
        <time>2019-01-24T21:16:31Z</time>
      </trkpt>
      <trkpt lat="51.230699602415" lon="4.466745020116">
        <ele>0.4</ele>
        <time>2019-01-24T21:17:00Z</time>
      </trkpt>
      <trkpt lat="51.230712761998" lon="4.46647730223">
        <ele>0</ele>
        <time>2019-01-24T21:17:08Z</time>
      </trkpt>
      <trkpt lat="51.230724915753" lon="4.46618058297">
        <ele>2.6</ele>
        <time>2019-01-24T21:17:27Z</time>
      </trkpt>
      <trkpt lat="51.230715528025" lon="4.465453620783">
        <ele>0.2</ele>
        <time>2019-01-24T21:18:00Z</time>
      </trkpt>
      <trkpt lat="51.230714019283" lon="4.465376423484">
        <ele>1.6</ele>
        <time>2019-01-24T21:18:06Z</time>
      </trkpt>
      <trkpt lat="51.23064553916" lon="4.46466597364">
        <ele>0.2</ele>
        <time>2019-01-24T21:18:51Z</time>
      </trkpt>
      <trkpt lat="51.230470776545" lon="4.463977652012">
        <ele>8</ele>
        <time>2019-01-24T21:19:20Z</time>
      </trkpt>
      <trkpt lat="51.230395507083" lon="4.463886121664">
        <ele>6.6</ele>
        <time>2019-01-24T21:19:27Z</time>
      </trkpt>
      <trkpt lat="51.230213703672" lon="4.464030793258">
        <ele>1.8</ele>
        <time>2019-01-24T21:19:44Z</time>
      </trkpt>
      <trkpt lat="51.230100380384" lon="4.464137578664">
        <ele>5</ele>
        <time>2019-01-24T21:19:58Z</time>
      </trkpt>
      <trkpt lat="51.229658402797" lon="4.464135147913">
        <ele>25.4</ele>
        <time>2019-01-24T21:20:32Z</time>
      </trkpt>
      <trkpt lat="51.229219694151" lon="4.464155599749">
        <ele>14.6</ele>
        <time>2019-01-24T21:21:14Z</time>
      </trkpt>
      <trkpt lat="51.229077620946" lon="4.464007826852">
        <ele>11.4</ele>
        <time>2019-01-24T21:21:30Z</time>
      </trkpt>
      <trkpt lat="51.229090864348" lon="4.463901460541">
        <ele>8.6</ele>
        <time>2019-01-24T21:21:36Z</time>
      </trkpt>
      <trkpt lat="51.22908231481" lon="4.463639609985">
        <ele>4.8</ele>
        <time>2019-01-24T21:21:51Z</time>
      </trkpt>
      <trkpt lat="51.228636565368" lon="4.463503236472">
        <ele>0</ele>
        <time>2019-01-24T21:22:29Z</time>
      </trkpt>
      <trkpt lat="51.228219482024" lon="4.463273320955">
        <ele>0</ele>
        <time>2019-01-24T21:23:15Z</time>
      </trkpt>
      <trkpt lat="51.228164915855" lon="4.463212300723">
        <ele>1.2</ele>
        <time>2019-01-24T21:23:26Z</time>
      </trkpt>
      <trkpt lat="51.227836848289" lon="4.462771999516">
        <ele>10.4</ele>
        <time>2019-01-24T21:24:00Z</time>
      </trkpt>
      <trkpt lat="51.227845314008" lon="4.462053838324">
        <ele>8.6</ele>
        <time>2019-01-24T21:24:40Z</time>
      </trkpt>
      <trkpt lat="51.227801476671" lon="4.461615381135">
        <ele>7.6</ele>
        <time>2019-01-24T21:25:08Z</time>
      </trkpt>
      <trkpt lat="51.227824023982" lon="4.461066199047">
        <ele>5.2</ele>
        <time>2019-01-24T21:25:39Z</time>
      </trkpt>
      <trkpt lat="51.227904322584" lon="4.46042389405">
        <ele>10.4</ele>
        <time>2019-01-24T21:26:19Z</time>
      </trkpt>
      <trkpt lat="51.228172291927" lon="4.460427833543">
        <ele>15.4</ele>
        <time>2019-01-24T21:26:44Z</time>
      </trkpt>
      <trkpt lat="51.228231384322" lon="4.460267403977">
        <ele>21</ele>
        <time>2019-01-24T21:27:02Z</time>
      </trkpt>
      <trkpt lat="51.228439758356" lon="4.45960749699">
        <ele>2.6</ele>
        <time>2019-01-24T21:27:35Z</time>
      </trkpt>
      <trkpt lat="51.228566408865" lon="4.459422927552">
        <ele>0</ele>
        <time>2019-01-24T21:27:55Z</time>
      </trkpt>
      <trkpt lat="51.228522487709" lon="4.458687667284">
        <ele>0.6</ele>
        <time>2019-01-24T21:28:29Z</time>
      </trkpt>
      <trkpt lat="51.228696998867" lon="4.458119961197">
        <ele>0.8</ele>
        <time>2019-01-24T21:29:07Z</time>
      </trkpt>
      <trkpt lat="51.229097318411" lon="4.45801745056">
        <ele>6.8</ele>
        <time>2019-01-24T21:29:45Z</time>
      </trkpt>
      <trkpt lat="51.229110477994" lon="4.458016193275">
        <ele>7</ele>
        <time>2019-01-24T21:29:46Z</time>
      </trkpt>
      <trkpt lat="51.229363779012" lon="4.457971266291">
        <ele>3.2</ele>
        <time>2019-01-24T21:30:07Z</time>
      </trkpt>
      <trkpt lat="51.22956595044" lon="4.457934134474">
        <ele>10.8</ele>
        <time>2019-01-24T21:30:32Z</time>
      </trkpt>
      <trkpt lat="51.229638789151" lon="4.457955759776">
        <ele>12.8</ele>
        <time>2019-01-24T21:30:43Z</time>
      </trkpt>
    </trkseg>
  </trk>
</gpx>